createdAt,value
2019-04-21T00:01:08.526Z,54.77
2019-04-21T00:03:44.139Z,55.22
2019-04-21T00:06:30.952Z,54.98
2019-04-21T00:09:02.350Z,54.20
2019-04-21T00:11:34.307Z,55.10
2019-04-21T00:13:56.143Z,54.28
2019-04-21T00:16:24.672Z,54.03
2019-04-21T00:19:09.277Z,54.71
2019-04-21T00:21:42.668Z,54.98
2019-04-21T00:24:29.222Z,54.33
2019-04-21T00:27:02.467Z,55.16
2019-04-21T00:32:08.596Z,55.24
2019-04-21T00:34:23.622Z,55.33
2019-04-21T00:37:08.301Z,55.28
2019-04-21T00:39:55.782Z,54.99
2019-04-21T00:42:21.619Z,54.99
2019-04-21T00:44:44.299Z,54.95
2019-04-21T00:47:27.304Z,55.75
2019-04-21T00:49:59.109Z,56.62
2019-04-21T00:52:51.026Z,55.45
2019-04-21T00:55:35.553Z,57.27
2019-04-21T00:58:05.241Z,55.34
2019-04-21T01:00:32.346Z,56.32
2019-04-21T01:03:10.937Z,56.86
2019-04-21T01:05:42.774Z,56.67
2019-04-21T01:08:09.965Z,56.98
2019-04-21T01:10:35.872Z,56.97
2019-04-21T01:13:23.587Z,57.01
2019-04-21T01:15:51.503Z,57.17
2019-04-21T01:18:21.786Z,57.72
2019-04-21T01:20:30.770Z,58.05
2019-04-21T01:23:02.307Z,57.71
2019-04-21T01:25:38.176Z,58.42
2019-04-21T01:28:24.579Z,58.46
2019-04-21T01:30:56.836Z,57.73
2019-04-21T01:33:34.930Z,58.16
2019-04-21T01:35:58.077Z,59.50
2019-04-21T01:38:39.849Z,59.35
2019-04-21T01:41:07.074Z,59.38
2019-04-21T01:43:33.694Z,57.89
2019-04-21T01:46:09.280Z,59.02
2019-04-21T01:48:39.123Z,60.10
2019-04-21T01:51:15.555Z,60.61
2019-04-21T01:54:14.736Z,60.44
2019-04-21T01:56:52.395Z,59.94
2019-04-21T01:59:12.778Z,61.00
2019-04-21T02:02:00.423Z,60.38
2019-04-21T02:04:37.000Z,60.99
2019-04-21T02:07:07.396Z,61.16
2019-04-21T02:09:37.992Z,60.68
2019-04-21T02:12:17.263Z,60.74
2019-04-21T02:14:50.503Z,62.05
2019-04-21T02:17:16.271Z,61.94
2019-04-21T02:19:41.027Z,61.45
2019-04-21T02:22:24.134Z,60.18
2019-04-21T02:24:56.646Z,61.90
2019-04-21T02:27:23.785Z,61.56
2019-04-21T02:30:02.708Z,62.05
2019-04-21T02:32:43.869Z,61.58
2019-04-21T02:38:03.913Z,60.27
2019-04-21T02:43:00.253Z,59.56
2019-04-21T02:45:24.489Z,59.23
2019-04-21T02:50:28.747Z,59.23
2019-04-21T02:58:10.003Z,57.31
2019-04-21T03:00:44.913Z,57.47
2019-04-21T03:11:12.244Z,55.61
2019-04-21T03:13:47.157Z,55.95
2019-04-21T03:16:28.417Z,56.51
2019-04-21T03:18:52.454Z,56.57
2019-04-21T03:21:22.184Z,56.52
2019-04-21T03:23:57.535Z,56.44
2019-04-21T03:31:49.649Z,57.65
2019-04-21T03:39:01.349Z,56.77
2019-04-21T03:44:16.860Z,56.71
2019-04-21T03:46:47.280Z,57.14
2019-04-21T03:49:23.158Z,57.20
2019-04-21T03:54:21.250Z,57.23
2019-04-21T03:57:13.094Z,57.50
2019-04-21T03:59:24.918Z,58.23
2019-04-21T04:02:28.317Z,58.69
2019-04-21T04:05:08.935Z,58.93
2019-04-21T04:07:42.291Z,59.71
2019-04-21T04:10:19.568Z,60.27
2019-04-21T04:12:44.338Z,59.99
2019-04-21T04:15:24.296Z,60.08
2019-04-21T04:17:41.022Z,59.59
2019-04-21T04:25:35.402Z,59.45
2019-04-21T04:30:34.050Z,60.38
2019-04-21T04:33:01.264Z,61.07
2019-04-21T04:38:07.023Z,61.52
2019-04-21T04:41:01.811Z,61.46
2019-04-21T04:43:26.944Z,61.24
2019-04-21T04:56:05.899Z,62.35
2019-04-21T04:59:15.948Z,62.83
2019-04-21T05:01:14.696Z,62.69
2019-04-21T05:09:09.425Z,62.74
2019-04-21T05:19:22.858Z,63.59
2019-04-21T05:21:38.691Z,63.13
2019-04-21T05:23:59.884Z,63.82
2019-04-21T05:26:34.547Z,63.41
2019-04-21T05:29:02.024Z,61.75
2019-04-21T05:31:54.753Z,62.67
2019-04-21T05:34:21.967Z,61.74
2019-04-21T05:37:06.079Z,62.07
2019-04-21T05:39:53.502Z,61.16
2019-04-21T05:42:23.672Z,60.73
2019-04-21T05:47:46.288Z,57.98
2019-04-21T05:50:11.553Z,57.83
2019-04-21T05:52:52.009Z,56.04
2019-04-21T05:55:34.330Z,55.48
2019-04-21T05:58:01.291Z,56.20
2019-04-21T06:00:54.644Z,52.78
2019-04-21T06:03:13.459Z,49.13
2019-04-21T06:05:47.854Z,46.96
2019-04-21T06:08:14.611Z,43.76
2019-04-21T06:10:47.294Z,46.31
2019-04-21T06:13:18.749Z,43.43
2019-04-21T06:18:28.912Z,40.85
2019-04-21T06:20:56.893Z,40.94
2019-04-21T06:23:24.074Z,40.58
2019-04-21T06:26:27.030Z,39.94
2019-04-21T06:28:38.144Z,38.63
2019-04-21T06:31:30.718Z,40.04
2019-04-21T06:33:35.725Z,38.25
2019-04-21T06:39:04.983Z,37.34
2019-04-21T06:44:11.834Z,35.87
2019-04-21T06:46:39.330Z,35.09
2019-04-21T06:51:33.769Z,34.51
2019-04-21T06:56:41.053Z,34.36
2019-04-21T06:59:21.039Z,34.32
2019-04-21T07:01:55.298Z,34.39
2019-04-21T07:06:48.175Z,34.25
2019-04-21T07:09:26.914Z,33.57
2019-04-21T07:11:53.865Z,33.65
2019-04-21T07:14:29.359Z,33.23
2019-04-21T07:16:58.121Z,33.20
2019-04-21T07:22:01.127Z,31.90
2019-04-21T07:24:31.276Z,29.54
2019-04-21T07:27:02.840Z,31.15
2019-04-21T07:29:39.533Z,29.36
2019-04-21T07:32:11.761Z,30.00
2019-04-21T07:34:38.283Z,29.37
2019-04-21T07:37:13.939Z,28.48
2019-04-21T07:39:39.093Z,28.52
2019-04-21T07:42:14.334Z,28.25
2019-04-21T07:44:44.762Z,27.03
2019-04-21T07:47:23.510Z,27.18
2019-04-21T07:50:00.921Z,27.68
2019-04-21T07:53:07.004Z,26.60
2019-04-21T07:58:02.576Z,25.35
2019-04-21T08:00:35.860Z,26.11
2019-04-21T08:03:15.915Z,25.45
2019-04-21T08:05:43.964Z,25.13
2019-04-21T08:07:59.658Z,25.74
2019-04-21T08:10:40.493Z,25.16
2019-04-21T08:13:22.135Z,25.43
2019-04-21T08:15:57.734Z,23.70
2019-04-21T08:18:20.320Z,23.62
2019-04-21T08:20:50.167Z,24.52
2019-04-21T08:23:20.430Z,25.29
2019-04-21T08:25:58.934Z,23.97
2019-04-21T08:28:25.936Z,24.33
2019-04-21T08:30:55.482Z,24.90
2019-04-21T08:33:46.574Z,23.30
2019-04-21T08:38:34.415Z,21.03
2019-04-21T08:41:11.066Z,21.79
2019-04-21T08:48:56.675Z,21.09
2019-04-21T08:51:33.342Z,20.43
2019-04-21T08:54:05.577Z,19.83
2019-04-21T08:57:10.397Z,20.27
2019-04-21T08:59:59.851Z,19.68
2019-04-21T09:02:37.251Z,19.59
2019-04-21T09:05:09.462Z,19.14
2019-04-21T09:07:41.721Z,20.25
2019-04-21T09:10:06.334Z,19.22
2019-04-21T09:12:43.124Z,19.09
2019-04-21T09:15:14.151Z,19.63
2019-04-21T09:17:39.204Z,18.12
2019-04-21T09:20:17.334Z,19.06
2019-04-21T09:22:49.283Z,17.88
2019-04-21T09:25:26.532Z,18.04
2019-04-21T09:27:47.128Z,16.92
2019-04-21T09:30:07.391Z,17.76
2019-04-21T09:32:40.303Z,16.93
2019-04-21T09:35:14.822Z,16.67
2019-04-21T09:37:51.676Z,16.33
2019-04-21T09:40:21.722Z,15.41
2019-04-21T09:42:55.996Z,15.97
2019-04-21T09:45:22.450Z,17.01
2019-04-21T09:48:00.834Z,15.92
2019-04-21T09:50:24.678Z,15.69
2019-04-21T09:53:00.244Z,16.16
2019-04-21T09:55:39.068Z,16.45
2019-04-21T09:58:12.661Z,15.92
2019-04-21T10:00:43.558Z,15.14
2019-04-21T10:03:08.409Z,15.95
2019-04-21T10:05:36.137Z,14.19
2019-04-21T10:08:08.179Z,13.91
2019-04-21T10:10:40.002Z,13.44
2019-04-21T10:13:10.663Z,13.42
2019-04-21T10:15:41.945Z,12.63
2019-04-21T10:18:25.112Z,13.81
2019-04-21T10:20:56.957Z,13.05
2019-04-21T10:23:27.522Z,13.86
2019-04-21T10:25:58.734Z,12.08
2019-04-21T10:28:29.306Z,12.32
2019-04-21T10:31:00.776Z,12.10
2019-04-21T10:33:32.534Z,12.93
2019-04-21T10:36:03.028Z,13.48
2019-04-21T10:38:42.360Z,13.84
2019-04-21T10:41:06.074Z,13.57
2019-04-21T10:43:37.518Z,13.05
2019-04-21T10:46:08.771Z,12.33
2019-04-21T10:48:39.448Z,12.17
2019-04-21T10:51:10.729Z,11.70
2019-04-21T10:53:43.334Z,12.19
2019-04-21T10:56:21.843Z,12.67
2019-04-21T10:58:47.503Z,12.75
2019-04-21T11:01:21.032Z,12.09
2019-04-21T11:04:23.554Z,11.32
2019-04-21T11:06:52.694Z,10.78
2019-04-21T11:09:51.985Z,11.60
2019-04-21T11:12:23.914Z,11.97
2019-04-21T11:14:54.487Z,11.79
2019-04-21T11:17:25.928Z,10.53
2019-04-21T11:19:57.044Z,11.11
2019-04-21T11:22:28.496Z,11.53
2019-04-21T11:24:59.046Z,11.21
2019-04-21T11:27:30.941Z,11.40
2019-04-21T11:30:02.354Z,12.06
2019-04-21T11:32:32.848Z,10.38
2019-04-21T11:35:03.360Z,10.19
2019-04-21T11:37:34.863Z,10.44
2019-04-21T11:40:10.770Z,10.52
2019-04-21T11:42:41.752Z,10.05
2019-04-21T11:45:18.665Z,10.35
2019-04-21T11:48:06.146Z,10.41
2019-04-21T11:50:37.084Z,10.39
2019-04-21T11:53:08.410Z,10.46
2019-04-21T11:55:43.157Z,10.89
2019-04-21T11:58:11.913Z,9.67
2019-04-21T12:00:43.496Z,9.91
2019-04-21T12:03:15.320Z,10.22
2019-04-21T12:05:46.153Z,10.73
2019-04-21T12:08:26.306Z,10.73
2019-04-21T12:10:49.289Z,10.81
2019-04-21T12:13:20.414Z,10.85
2019-04-21T12:15:50.942Z,11.30
2019-04-21T12:18:21.988Z,10.64
2019-04-21T12:20:53.785Z,10.59
2019-04-21T12:23:24.651Z,10.38
2019-04-21T12:25:55.141Z,10.58
2019-04-21T12:28:30.102Z,10.67
2019-04-21T12:31:00.124Z,9.52
2019-04-21T12:33:48.243Z,9.51
2019-04-21T12:36:19.824Z,9.45
2019-04-21T12:38:55.798Z,9.45
2019-04-21T12:41:22.732Z,10.06
2019-04-21T12:43:53.122Z,8.83
2019-04-21T12:46:23.515Z,9.04
2019-04-21T12:48:53.992Z,8.62
2019-04-21T12:51:25.853Z,8.17
2019-04-21T12:53:57.429Z,7.82
2019-04-21T12:56:29.408Z,8.25
2019-04-21T12:58:59.906Z,8.32
2019-04-21T13:01:30.891Z,8.79
2019-04-21T13:04:01.804Z,8.62
2019-04-21T13:06:33.759Z,7.93
2019-04-21T13:09:08.581Z,8.49
2019-04-21T13:11:37.208Z,8.43
2019-04-21T13:14:08.258Z,8.09
2019-04-21T13:16:39.272Z,7.87
2019-04-21T13:19:09.744Z,8.71
2019-04-21T13:21:40.451Z,9.58
2019-04-21T13:24:11.687Z,9.08
2019-04-21T13:26:47.219Z,9.43
2019-04-21T13:29:14.854Z,9.74
2019-04-21T13:31:45.326Z,9.42
2019-04-21T13:34:15.929Z,11.13
2019-04-21T13:36:47.724Z,10.87
2019-04-21T13:39:55.502Z,11.55
2019-04-21T13:42:18.048Z,12.12
2019-04-21T13:44:41.319Z,12.66
2019-04-21T13:47:12.498Z,12.88
2019-04-21T13:49:43.425Z,14.32
2019-04-21T13:52:14.983Z,13.98
2019-04-21T13:54:45.591Z,14.85
2019-04-21T13:57:16.705Z,16.18
2019-04-21T13:59:49.392Z,15.50
2019-04-21T14:02:20.706Z,15.79
2019-04-21T14:04:51.808Z,16.38
2019-04-21T14:07:22.327Z,15.01
2019-04-21T14:09:57.554Z,15.50
2019-04-21T14:12:25.394Z,16.12
2019-04-21T14:14:56.563Z,16.01
2019-04-21T14:17:27.140Z,16.00
2019-04-21T14:19:57.438Z,16.44
2019-04-21T14:22:28.325Z,16.48
2019-04-21T14:24:59.755Z,16.53
2019-04-21T14:27:30.232Z,16.55
2019-04-21T14:30:00.732Z,16.01
2019-04-21T14:32:31.845Z,15.54
2019-04-21T14:35:03.091Z,15.12
2019-04-21T14:37:34.815Z,15.49
2019-04-21T14:40:10.738Z,15.35
2019-04-21T14:42:38.570Z,14.59
2019-04-21T14:45:12.773Z,14.92
2019-04-21T14:48:03.188Z,14.82
2019-04-21T14:50:59.992Z,15.08
2019-04-21T14:53:38.136Z,15.02
2019-04-21T14:56:09.097Z,15.52
2019-04-21T14:58:39.687Z,16.19
2019-04-21T15:01:10.450Z,16.06
2019-04-21T15:03:41.690Z,15.55
2019-04-21T15:06:13.478Z,16.54
2019-04-21T15:08:44.918Z,16.99
2019-04-21T15:11:16.081Z,16.72
2019-04-21T15:13:47.987Z,17.02
2019-04-21T15:16:18.756Z,16.47
2019-04-21T15:18:50.494Z,16.00
2019-04-21T15:21:21.622Z,17.02
2019-04-21T15:23:52.074Z,17.20
2019-04-21T15:26:22.492Z,17.37
2019-04-21T15:28:52.946Z,16.54
2019-04-21T15:31:30.615Z,17.01
2019-04-21T15:33:55.532Z,16.63
2019-04-21T15:36:27.219Z,16.21
2019-04-21T15:38:58.057Z,16.73
2019-04-21T15:41:28.525Z,17.06
2019-04-21T15:44:01.270Z,16.32
2019-04-21T15:46:33.885Z,15.70
2019-04-21T15:49:04.931Z,15.45
2019-04-21T15:51:35.788Z,15.02
2019-04-21T15:54:06.856Z,14.65
2019-04-21T15:57:06.866Z,14.30
2019-04-21T15:59:46.809Z,14.34
2019-04-21T16:02:34.884Z,14.53
2019-04-21T16:05:06.605Z,13.79
2019-04-21T16:07:38.076Z,13.33
2019-04-21T16:10:10.657Z,13.88
2019-04-21T16:12:43.556Z,13.13
2019-04-21T16:15:14.633Z,13.72
2019-04-21T16:17:45.621Z,14.46
2019-04-21T16:20:17.711Z,14.92
2019-04-21T16:22:48.662Z,15.34
2019-04-21T16:25:19.165Z,15.10
2019-04-21T16:27:49.521Z,15.54
2019-04-21T16:30:20.100Z,16.04
2019-04-21T16:32:50.562Z,15.84
2019-04-21T16:35:22.136Z,16.69
2019-04-21T16:37:55.754Z,16.61
2019-04-21T16:40:25.781Z,16.60
2019-04-21T16:42:56.365Z,16.99
2019-04-21T16:45:28.533Z,17.49
2019-04-21T16:47:59.244Z,17.45
2019-04-21T16:50:29.883Z,17.18
2019-04-21T16:53:08.327Z,17.60
2019-04-21T16:56:13.217Z,18.13
2019-04-21T16:58:48.409Z,16.85
2019-04-21T17:01:24.199Z,16.24
2019-04-21T17:03:54.795Z,16.75
2019-04-21T17:06:25.285Z,16.25
2019-04-21T17:08:56.760Z,16.43
2019-04-21T17:11:31.685Z,16.59
2019-04-21T17:14:00.516Z,16.03
2019-04-21T17:17:03.996Z,16.43
2019-04-21T17:19:19.142Z,16.15
2019-04-21T17:21:43.683Z,16.52
2019-04-21T17:24:14.588Z,18.42
2019-04-21T17:26:53.219Z,18.01
2019-04-21T17:29:25.985Z,17.88
2019-04-21T17:31:57.328Z,17.66
2019-04-21T17:34:30.134Z,17.71
2019-04-21T17:37:01.245Z,17.98
2019-04-21T17:39:32.008Z,18.59
2019-04-21T17:42:15.291Z,18.61
2019-04-21T17:44:37.382Z,19.58
2019-04-21T17:47:20.098Z,20.31
2019-04-21T17:49:41.125Z,20.63
2019-04-21T17:52:45.971Z,22.35
2019-04-21T17:55:27.323Z,21.29
2019-04-21T17:58:09.602Z,20.08
2019-04-21T18:01:06.522Z,20.33
2019-04-21T18:03:35.988Z,22.55
2019-04-21T18:05:50.269Z,21.82
2019-04-21T18:08:32.567Z,21.62
2019-04-21T18:10:50.368Z,21.52
2019-04-21T18:13:17.344Z,22.31
2019-04-21T18:15:58.680Z,23.59
2019-04-21T18:18:18.711Z,23.29
2019-04-21T18:20:55.094Z,24.73
2019-04-21T18:23:57.427Z,25.18
2019-04-21T18:26:30.352Z,24.71
2019-04-21T18:28:57.181Z,25.02
2019-04-21T18:31:35.329Z,24.91
2019-04-21T18:34:12.716Z,26.41
2019-04-21T18:36:48.657Z,28.77
2019-04-21T18:39:43.325Z,29.11
2019-04-21T18:42:31.239Z,31.14
2019-04-21T18:45:40.273Z,30.67
2019-04-21T18:48:03.800Z,31.23
2019-04-21T18:50:57.044Z,34.09
2019-04-21T18:53:57.197Z,35.12
2019-04-21T18:56:11.280Z,35.25
2019-04-21T18:58:42.408Z,36.23
2019-04-21T19:01:21.999Z,35.74
2019-04-21T19:04:20.416Z,36.73
2019-04-21T19:07:06.715Z,38.08
2019-04-21T19:10:09.872Z,38.62
2019-04-21T19:12:23.648Z,39.66
2019-04-21T19:14:56.650Z,40.05
2019-04-21T19:20:22.273Z,40.34
2019-04-21T19:22:38.732Z,40.19
2019-04-21T19:25:13.105Z,39.02
2019-04-21T19:27:39.981Z,39.58
2019-04-21T19:30:23.460Z,40.66
2019-04-21T19:32:45.422Z,40.93
2019-04-21T19:35:01.881Z,40.94
2019-04-21T19:37:40.166Z,40.89
2019-04-21T19:40:16.137Z,40.75
2019-04-21T19:42:50.332Z,40.69
2019-04-21T19:45:24.809Z,40.75
2019-04-21T19:47:59.447Z,41.63
2019-04-21T19:50:35.042Z,42.39
2019-04-21T19:52:57.386Z,42.06
2019-04-21T19:55:24.248Z,42.50
2019-04-21T19:57:55.029Z,42.22
2019-04-21T20:00:26.585Z,42.21
2019-04-21T20:02:58.627Z,41.17
2019-04-21T20:05:36.080Z,42.09
2019-04-21T20:08:17.424Z,41.71
2019-04-21T20:10:57.430Z,42.45
2019-04-21T20:13:43.683Z,42.68
2019-04-21T20:16:04.004Z,44.21
2019-04-21T20:18:23.251Z,44.67
2019-04-21T20:20:44.084Z,44.57
2019-04-21T20:23:16.925Z,44.31
2019-04-21T20:25:52.148Z,44.54
2019-04-21T20:28:35.287Z,44.01
2019-04-21T20:31:13.016Z,45.70
2019-04-21T20:33:52.672Z,45.63
2019-04-21T20:36:21.137Z,45.53
2019-04-21T20:38:40.445Z,45.99
2019-04-21T20:41:19.708Z,46.48
2019-04-21T20:43:51.324Z,48.15
2019-04-21T20:46:24.673Z,47.39
2019-04-21T20:48:50.954Z,47.09
2019-04-21T20:51:27.382Z,47.09
2019-04-21T20:53:53.736Z,47.58
2019-04-21T20:56:26.910Z,46.09
2019-04-21T20:59:10.947Z,47.99
2019-04-21T21:01:41.267Z,47.99
2019-04-21T21:04:07.484Z,48.06
2019-04-21T21:06:42.418Z,47.21
2019-04-21T21:09:14.305Z,47.71
2019-04-21T21:12:04.094Z,47.94
2019-04-21T21:14:26.316Z,48.55
2019-04-21T21:16:59.303Z,47.93
2019-04-21T21:19:28.591Z,48.65
2019-04-21T21:21:54.009Z,47.94
2019-04-21T21:24:36.466Z,47.52
2019-04-21T21:27:01.934Z,47.04
2019-04-21T21:29:37.038Z,47.71
2019-04-21T21:32:19.557Z,47.50
2019-04-21T21:34:43.472Z,48.10
2019-04-21T21:37:21.651Z,48.08
2019-04-21T21:39:53.759Z,49.03
2019-04-21T21:42:02.707Z,49.13
2019-04-21T21:44:32.523Z,49.97
2019-04-21T21:47:14.415Z,49.72
2019-04-21T21:49:51.311Z,49.68
2019-04-21T21:52:18.266Z,50.22
2019-04-21T21:54:40.103Z,50.78
2019-04-21T21:57:10.672Z,51.54
2019-04-21T21:59:42.170Z,51.11
2019-04-21T22:02:24.147Z,49.07
2019-04-21T22:04:56.862Z,51.83
2019-04-21T22:07:25.730Z,51.30
2019-04-21T22:09:52.385Z,51.13
2019-04-21T22:12:22.980Z,51.85
2019-04-21T22:14:55.467Z,51.75
2019-04-21T22:17:41.990Z,51.56
2019-04-21T22:20:14.002Z,48.45
2019-04-21T22:22:43.860Z,47.65
2019-04-21T22:25:09.630Z,46.96
2019-04-21T22:27:34.987Z,43.73
2019-04-21T22:30:10.839Z,42.09
2019-04-21T22:32:50.225Z,40.47
2019-04-21T22:35:23.694Z,37.38
2019-04-21T22:37:57.052Z,38.66
2019-04-21T22:40:29.514Z,37.50
2019-04-21T22:42:59.400Z,36.31
2019-04-21T22:45:23.141Z,37.21
2019-04-21T22:47:58.726Z,36.30
2019-04-21T22:50:30.791Z,35.90
2019-04-21T22:53:04.735Z,35.31
2019-04-21T22:55:35.316Z,35.35
2019-04-21T22:58:07.484Z,34.61
2019-04-21T23:00:44.449Z,34.69
2019-04-21T23:03:16.419Z,34.60
2019-04-21T23:05:44.507Z,35.55
2019-04-21T23:08:15.151Z,34.88
2019-04-21T23:10:52.341Z,35.41
2019-04-21T23:13:21.930Z,36.78
2019-04-21T23:15:55.367Z,35.51
2019-04-21T23:18:36.051Z,36.49
2019-04-21T23:21:10.396Z,38.06
2019-04-21T23:23:44.175Z,36.12
2019-04-21T23:26:18.179Z,35.90
2019-04-21T23:28:51.943Z,38.10
2019-04-21T23:31:27.222Z,37.86
2019-04-21T23:33:37.276Z,36.72
2019-04-21T23:36:14.948Z,36.95
2019-04-21T23:38:44.125Z,36.40
2019-04-21T23:41:13.128Z,36.88
2019-04-21T23:43:44.805Z,36.66
2019-04-21T23:46:20.350Z,36.71
2019-04-21T23:49:02.428Z,37.76
2019-04-21T23:51:32.733Z,36.97
2019-04-21T23:53:53.413Z,37.23
2019-04-21T23:56:32.293Z,37.22
2019-04-21T23:59:02.632Z,37.22
